Accueil
METAR-TAF:

METAR-TAF

Aéroports :

Aeroflex-Andover Airport

Andover, New Jersey, États-Unis

latitude: 41-00-32N, longitude: 074-44-12W, altitude: 177 m

Observation

Le bulletin a été fait il y a 1 heure et 10 minutes, à 05:54 UTC
Vent 3 kt de ouest/sud-ouest
Température 15°C
Humidité 88%
Pression 1007 hPa

METAR: K12N 030554Z AUTO 24003KT 15/13 A2975 RMK AO1 SLP071 60002 T01500133 10200 20144 58031

Heure: 03:04 (07:04 UTC)


TAF: absent

Observations et prévisions météorologiques de plus de 4000 aéroports (messages METAR et TAF).

Les stations disponibles sont représentées par des disques jaunes et rouges sur la carte.

Passer la souris dessus pour voir le nom de la station.

Cliquer dessus pour voir les observations et prévisions météorologiques.

Pour changer de carte: cliquez sur les boutons verts avec une croix noire pour zoomer, sur le bouton vert avec un tiret pour effectuer un zoom arrière, ou sur les flèches vertes pour les cartes adjacentes.


METAR-TAF: